Главная страница
METAR-TAF:

METAR-TAF

Аэропорты :

Mfuwe, Замбия

широта: 13-15-32S, долгота: 031-56-12E, высота над уровнем моря: 573 м

METAR: отсутствует

Время: 14:33 (12:33 UTC)

Прогноз

Эта сводка был подготовлена 2 часа и 33 минут назад, в 10:00 UTC
Прогноз действительный с 03-го 12 UTC до 04-го 18 UTC
Ветер 5 Узел от восточно-юго-восточный
Видимость 10 км и более
небольшая облачность на высоте 3000 фута, Кучево-дождевые.
Рассеянная облачность на высоте 3500 фута
Вероятность 30% :
временами
С 03-го 12 UTC до 03-го 14 UTC
Видимость: 8000 м
гроза, дождь
изменения
С 03-го 16 UTC до 03-го 18 UTC
Ветер 3 Узел переменных направлений
Видимость 10 км и более
небольшая облачность , Кучево-дождевые.
Вероятность 30% :
временами
С 03-го 20 UTC до 03-го 22 UTC
Видимость: 8000 м
гроза, дождь,

TAF: FLMF 031000Z 0312/0418 11005KT 9999 FEW030CB BKN035 PROB30 TEMPO 0312/0314 8000 TSRA BECMG 0316/0318 VRB03KT 9999 FEW///CB PROB30 TEMPO 0320/0322 8000 TSRA

Метеонаблюдения и прогнозы для более 4000 аэропортов (сводки METAR и TAF).

Имеющиеся станции представлены на карте желтыми и красными точками.

Чтобы увидеть название станции, наведите на нее мышь.

Затем щелкните, чтобы увидеть метеонаблюдения и метеопрогнозы.

Управление картой: чтобы увеличить масштаб, щелкните зеленые кнопки с черным крестиком; чтобы уменьшить масштаб, щелкните зеленую кнопку с тире; для просмотра соседних карт щелкайте зеленые стрелки.


METAR-TAF: